createdAt,value
2022-07-28T00:01:25.250Z,11.50
2022-07-28T00:03:52.013Z,11.40
2022-07-28T00:06:18.657Z,11.40
2022-07-28T00:08:45.418Z,11.40
2022-07-28T00:11:12.227Z,11.30
2022-07-28T00:13:38.948Z,11.20
2022-07-28T00:16:07.117Z,11.20
2022-07-28T00:18:33.967Z,11.20
2022-07-28T00:21:01.500Z,11.10
2022-07-28T00:23:38.603Z,11.10
2022-07-28T00:26:06.514Z,11.00
2022-07-28T00:28:33.175Z,11.00
2022-07-28T00:31:05.535Z,10.90
2022-07-28T00:33:32.916Z,10.90
2022-07-28T00:35:59.557Z,10.90
2022-07-28T00:38:26.486Z,10.90
2022-07-28T00:41:11.495Z,10.90
2022-07-28T00:43:42.775Z,10.90
2022-07-28T00:46:10.365Z,10.80
2022-07-28T00:48:43.360Z,10.90
2022-07-28T00:51:10.726Z,10.90
2022-07-28T00:53:38.582Z,10.80
2022-07-28T00:56:06.949Z,10.80
2022-07-28T00:58:34.546Z,10.70
2022-07-28T01:01:01.203Z,10.70
2022-07-28T01:03:29.062Z,10.60
2022-07-28T01:06:16.478Z,10.60
2022-07-28T01:08:52.016Z,10.50
2022-07-28T01:11:46.832Z,10.50
2022-07-28T01:14:47.734Z,10.50
2022-07-28T01:17:19.751Z,10.40
2022-07-28T01:20:00.191Z,10.40
2022-07-28T01:22:31.305Z,10.40
2022-07-28T01:25:16.874Z,10.30
2022-07-28T01:28:08.372Z,10.30
2022-07-28T01:30:47.508Z,10.30
2022-07-28T01:33:21.729Z,10.40
2022-07-28T01:35:56.326Z,10.30
2022-07-28T01:38:24.813Z,10.30
2022-07-28T01:40:54.396Z,10.20
2022-07-28T01:43:24.825Z,10.30
2022-07-28T01:45:54.798Z,10.30
2022-07-28T01:48:24.425Z,10.20
2022-07-28T01:50:53.119Z,10.20
2022-07-28T01:53:21.384Z,10.30
2022-07-28T01:55:50.045Z,10.30
2022-07-28T01:58:20.147Z,10.40
2022-07-28T02:00:50.176Z,10.30
2022-07-28T02:03:23.549Z,10.10
2022-07-28T02:05:52.571Z,10.00
2022-07-28T02:08:21.824Z,10.00
2022-07-28T02:11:10.408Z,10.10
2022-07-28T02:13:38.244Z,10.10
2022-07-28T02:16:08.028Z,10.10
2022-07-28T02:18:37.287Z,10.00
2022-07-28T02:21:05.125Z,10.00
2022-07-28T02:23:33.984Z,9.90
2022-07-28T02:26:04.325Z,10.00
2022-07-28T02:28:31.332Z,10.00
2022-07-28T02:31:06.471Z,10.00
2022-07-28T02:33:59.825Z,10.00
2022-07-28T02:36:28.327Z,9.90
2022-07-28T02:39:00.032Z,9.80
2022-07-28T02:41:29.238Z,9.80
2022-07-28T02:44:01.046Z,9.80
2022-07-28T02:46:38.222Z,9.90
2022-07-28T02:49:13.810Z,9.80
2022-07-28T02:51:42.879Z,9.80
2022-07-28T02:54:12.357Z,9.80
2022-07-28T02:56:41.530Z,9.80
2022-07-28T02:59:21.249Z,9.70
2022-07-28T03:01:49.537Z,9.70
2022-07-28T03:04:37.415Z,9.60
2022-07-28T03:07:07.802Z,9.50
2022-07-28T03:09:42.134Z,9.60
2022-07-28T03:12:10.118Z,9.60
2022-07-28T03:14:36.923Z,9.50
2022-07-28T03:17:03.849Z,9.50
2022-07-28T03:19:30.680Z,9.50
2022-07-28T03:21:57.516Z,9.60
2022-07-28T03:24:26.973Z,9.60
2022-07-28T03:27:00.657Z,9.70
2022-07-28T03:29:31.101Z,9.70
2022-07-28T03:31:59.563Z,9.70
2022-07-28T03:34:27.498Z,9.70
2022-07-28T03:37:11.900Z,9.70
2022-07-28T03:39:46.796Z,9.80
2022-07-28T03:42:16.741Z,9.80
2022-07-28T03:44:44.027Z,9.90
2022-07-28T03:47:10.791Z,9.90
2022-07-28T03:49:38.552Z,9.80
2022-07-28T03:52:05.678Z,9.80
2022-07-28T03:54:32.384Z,9.80
2022-07-28T03:56:59.091Z,9.80
2022-07-28T03:59:25.802Z,9.80
2022-07-28T04:01:56.096Z,9.80
2022-07-28T04:04:23.699Z,9.80
2022-07-28T04:06:50.732Z,9.80
2022-07-28T04:09:17.839Z,9.80
2022-07-28T04:11:44.679Z,9.80
2022-07-28T04:14:16.509Z,9.90
2022-07-28T04:16:44.041Z,9.90
2022-07-28T04:19:10.671Z,9.90
2022-07-28T04:21:37.315Z,10.00
2022-07-28T04:24:04.415Z,10.10
2022-07-28T04:26:31.077Z,10.10
2022-07-28T04:28:57.698Z,10.30
2022-07-28T04:31:24.360Z,10.30
2022-07-28T04:33:51.161Z,10.40
2022-07-28T04:36:17.903Z,10.50
2022-07-28T04:38:44.643Z,10.60
2022-07-28T04:41:11.350Z,10.70
2022-07-28T04:43:38.641Z,10.70
2022-07-28T04:46:05.411Z,10.80
2022-07-28T04:48:32.346Z,10.80
2022-07-28T04:50:59.055Z,10.90
2022-07-28T04:53:25.717Z,11.00
2022-07-28T04:55:53.626Z,11.10
2022-07-28T04:58:22.687Z,11.10
2022-07-28T05:00:50.661Z,11.20
2022-07-28T05:03:18.646Z,11.30
2022-07-28T05:05:47.474Z,11.30
2022-07-28T05:08:20.947Z,11.40
2022-07-28T05:10:48.617Z,11.50
2022-07-28T05:13:15.246Z,11.60
2022-07-28T05:15:41.922Z,11.70
2022-07-28T05:18:08.608Z,11.70
2022-07-28T05:20:35.450Z,11.70
2022-07-28T05:23:03.987Z,11.80
2022-07-28T05:25:30.647Z,11.80
2022-07-28T05:27:57.488Z,11.80
2022-07-28T05:30:24.244Z,11.80
2022-07-28T05:32:51.059Z,11.80
2022-07-28T05:35:17.770Z,11.70
2022-07-28T05:37:44.540Z,11.70
2022-07-28T05:40:13.881Z,11.80
2022-07-28T05:42:42.251Z,11.70
2022-07-28T05:45:15.678Z,11.70
2022-07-28T05:47:53.406Z,11.80
2022-07-28T05:50:25.947Z,11.80
2022-07-28T05:52:52.615Z,11.80
2022-07-28T05:55:20.842Z,11.90
2022-07-28T05:57:47.575Z,11.90
2022-07-28T06:00:18.008Z,11.90
2022-07-28T06:02:49.064Z,12.00
2022-07-28T06:05:17.353Z,12.10
2022-07-28T06:07:45.132Z,12.10
2022-07-28T06:10:13.776Z,12.20
2022-07-28T06:12:45.835Z,12.30
2022-07-28T06:15:25.539Z,12.40
2022-07-28T06:17:55.105Z,12.50
2022-07-28T06:20:23.642Z,12.60
2022-07-28T06:22:52.444Z,12.70
2022-07-28T06:25:24.456Z,12.80
2022-07-28T06:27:54.086Z,13.00
2022-07-28T06:30:21.347Z,13.10
2022-07-28T06:32:48.800Z,13.20
2022-07-28T06:35:16.813Z,13.30
2022-07-28T06:37:44.894Z,13.40
2022-07-28T06:40:12.404Z,13.60
2022-07-28T06:42:39.964Z,13.70
2022-07-28T06:45:07.729Z,13.80
2022-07-28T06:47:34.539Z,13.90
2022-07-28T06:50:01.831Z,14.00
2022-07-28T06:52:29.258Z,14.00
2022-07-28T06:54:57.424Z,14.20
2022-07-28T06:57:33.413Z,14.40
2022-07-28T07:00:06.093Z,14.50
2022-07-28T07:02:33.765Z,14.60
2022-07-28T07:05:00.450Z,14.70
2022-07-28T07:07:27.254Z,14.70
2022-07-28T07:09:53.926Z,14.70
2022-07-28T07:12:20.672Z,14.80
2022-07-28T07:14:47.914Z,15.00
2022-07-28T07:17:14.795Z,15.10
2022-07-28T07:19:41.481Z,15.20
2022-07-28T07:22:08.498Z,15.30
2022-07-28T07:24:35.477Z,15.40
2022-07-28T07:27:02.523Z,15.50
2022-07-28T07:29:30.388Z,15.60
2022-07-28T07:31:58.485Z,15.80
2022-07-28T07:34:25.300Z,15.90
2022-07-28T07:36:52.018Z,16.00
2022-07-28T07:39:18.659Z,16.10
2022-07-28T07:41:45.334Z,16.30
2022-07-28T07:44:12.906Z,16.40
2022-07-28T07:46:39.874Z,16.50
2022-07-28T07:49:06.725Z,16.60
2022-07-28T07:51:34.327Z,16.70
2022-07-28T07:54:00.990Z,16.80
2022-07-28T07:56:27.658Z,16.70
2022-07-28T07:58:56.997Z,16.80
2022-07-28T08:01:24.151Z,16.80
2022-07-28T08:03:51.425Z,16.90
2022-07-28T08:06:26.665Z,16.80
2022-07-28T08:08:54.780Z,16.90
2022-07-28T08:11:21.554Z,17.00
2022-07-28T08:13:48.585Z,17.20
2022-07-28T08:16:15.478Z,17.40
2022-07-28T08:18:42.587Z,17.40
2022-07-28T08:21:09.337Z,17.30
2022-07-28T08:23:36.016Z,17.60
2022-07-28T08:26:04.100Z,17.50
2022-07-28T08:28:30.764Z,17.60
2022-07-28T08:30:58.023Z,17.50
2022-07-28T08:33:24.790Z,17.60
2022-07-28T08:35:51.467Z,17.80
2022-07-28T08:38:18.396Z,17.80
2022-07-28T08:40:49.658Z,17.70
2022-07-28T08:43:24.119Z,17.60
2022-07-28T08:45:57.815Z,17.80
2022-07-28T08:48:30.466Z,17.90
2022-07-28T08:51:01.655Z,17.90
2022-07-28T08:53:34.235Z,17.90
2022-07-28T08:56:17.228Z,18.00
2022-07-28T08:58:44.140Z,18.10
2022-07-28T09:01:11.519Z,18.40
2022-07-28T09:03:39.349Z,18.30
2022-07-28T09:06:06.381Z,18.40
2022-07-28T09:08:33.394Z,18.60
2022-07-28T09:11:00.118Z,18.80
2022-07-28T09:13:26.828Z,18.80
2022-07-28T09:15:53.715Z,18.90
2022-07-28T09:18:21.504Z,19.10
2022-07-28T09:20:48.246Z,19.10
2022-07-28T09:23:41.854Z,19.40
2022-07-28T09:26:12.795Z,19.30
2022-07-28T09:28:54.348Z,19.40
2022-07-28T09:31:23.394Z,19.20
2022-07-28T09:34:00.725Z,19.20
2022-07-28T09:36:29.134Z,19.20
2022-07-28T09:38:56.777Z,19.20
2022-07-28T09:41:23.874Z,19.30
2022-07-28T09:43:55.182Z,19.50
2022-07-28T09:46:25.338Z,19.70
2022-07-28T09:48:59.336Z,19.90
2022-07-28T09:51:31.425Z,19.90
2022-07-28T09:54:16.196Z,20.00
2022-07-28T09:56:45.231Z,20.00
2022-07-28T09:59:14.997Z,19.70
2022-07-28T10:02:00.939Z,19.80
2022-07-28T10:04:37.410Z,19.90
2022-07-28T10:07:09.986Z,20.20
2022-07-28T10:09:38.110Z,20.30
2022-07-28T10:12:22.607Z,20.40
2022-07-28T10:14:51.658Z,20.40
2022-07-28T10:17:32.473Z,20.50
2022-07-28T10:20:01.589Z,20.60
2022-07-28T10:22:33.697Z,20.40
2022-07-28T10:25:15.320Z,20.60
2022-07-28T10:27:47.079Z,20.70
2022-07-28T10:30:14.884Z,20.90
2022-07-28T10:32:45.859Z,21.10
2022-07-28T10:35:14.550Z,20.80
2022-07-28T10:37:44.035Z,20.70
2022-07-28T10:40:12.549Z,21.00
2022-07-28T10:42:41.296Z,20.90
2022-07-28T10:45:11.402Z,20.90
2022-07-28T10:47:38.103Z,20.70
2022-07-28T10:50:05.308Z,20.50
2022-07-28T10:52:50.523Z,20.60
2022-07-28T10:55:41.889Z,20.90
2022-07-28T10:58:28.471Z,21.00
2022-07-28T11:00:59.589Z,21.10
2022-07-28T11:03:41.298Z,21.20
2022-07-28T11:06:29.149Z,21.60
2022-07-28T11:08:58.414Z,21.70
2022-07-28T11:11:43.927Z,21.40
2022-07-28T11:14:26.037Z,21.80
2022-07-28T11:17:10.780Z,22.00
2022-07-28T11:20:06.763Z,22.40
2022-07-28T11:22:33.276Z,22.30
2022-07-28T11:25:17.871Z,22.20
2022-07-28T11:27:52.170Z,22.40
2022-07-28T11:30:19.199Z,22.70
2022-07-28T11:32:54.907Z,22.90
2022-07-28T11:35:22.954Z,22.80
2022-07-28T11:38:01.996Z,23.10
2022-07-28T11:40:35.012Z,23.00
2022-07-28T11:43:35.266Z,23.20
2022-07-28T11:46:04.871Z,23.50
2022-07-28T11:48:38.246Z,23.40
2022-07-28T11:51:05.039Z,23.80
2022-07-28T11:53:51.124Z,24.20
2022-07-28T11:56:29.406Z,24.40
2022-07-28T11:58:57.118Z,24.90
2022-07-28T12:01:23.765Z,25.10
2022-07-28T12:03:55.302Z,25.10
2022-07-28T12:06:28.473Z,25.00
2022-07-28T12:09:07.775Z,24.80
2022-07-28T12:11:42.698Z,24.60
2022-07-28T12:14:10.007Z,25.00
2022-07-28T12:16:42.421Z,25.50
2022-07-28T12:19:11.010Z,25.50
2022-07-28T12:21:46.673Z,25.20
2022-07-28T12:24:45.785Z,25.10
2022-07-28T12:27:13.676Z,24.90
2022-07-28T12:29:41.712Z,23.90
2022-07-28T12:32:10.331Z,23.80
2022-07-28T12:34:39.697Z,24.90
2022-07-28T12:37:09.699Z,25.10
2022-07-28T12:39:41.827Z,25.70
2022-07-28T12:42:11.345Z,24.70
2022-07-28T12:44:40.270Z,25.10
2022-07-28T12:47:09.641Z,26.10
2022-07-28T12:49:37.845Z,26.80
2022-07-28T12:52:22.788Z,26.40
2022-07-28T12:54:53.596Z,26.50
2022-07-28T12:57:46.083Z,26.20
2022-07-28T13:00:20.020Z,25.70
2022-07-28T13:02:48.734Z,26.40
2022-07-28T13:05:54.506Z,27.00
2022-07-28T13:08:22.535Z,27.20
2022-07-28T13:10:52.349Z,27.10
2022-07-28T13:13:23.572Z,27.30
2022-07-28T13:16:13.039Z,27.50
2022-07-28T13:18:41.252Z,27.50
2022-07-28T13:21:08.208Z,27.30
2022-07-28T13:23:35.042Z,27.90
2022-07-28T13:26:01.901Z,27.80
2022-07-28T13:28:28.734Z,27.30
2022-07-28T13:30:55.526Z,27.80
2022-07-28T13:33:22.276Z,27.80
2022-07-28T13:35:50.209Z,27.40
2022-07-28T13:38:17.738Z,27.70
2022-07-28T13:40:45.132Z,28.10
2022-07-28T13:43:11.896Z,27.50
2022-07-28T13:45:38.762Z,27.70
2022-07-28T13:48:07.690Z,27.50
2022-07-28T13:50:34.421Z,27.30
2022-07-28T13:53:01.109Z,27.40
2022-07-28T13:55:28.282Z,27.90
2022-07-28T13:57:55.030Z,27.80
2022-07-28T14:00:23.727Z,28.20
2022-07-28T14:02:51.516Z,27.70
2022-07-28T14:05:18.520Z,27.50
2022-07-28T14:07:48.311Z,28.10
2022-07-28T14:10:15.859Z,28.60
2022-07-28T14:12:42.555Z,28.60
2022-07-28T14:15:12.663Z,28.70
2022-07-28T14:17:43.736Z,28.80
2022-07-28T14:20:15.297Z,28.90
2022-07-28T14:22:43.920Z,29.00
2022-07-28T14:25:11.506Z,29.40
2022-07-28T14:27:41.257Z,28.80
2022-07-28T14:30:08.715Z,28.50
2022-07-28T14:32:35.925Z,28.30
2022-07-28T14:35:02.753Z,28.20
2022-07-28T14:37:36.291Z,28.40
2022-07-28T14:40:14.769Z,28.60
2022-07-28T14:42:41.418Z,28.70
2022-07-28T14:45:08.604Z,28.90
2022-07-28T14:47:45.378Z,29.70
2022-07-28T14:50:13.163Z,30.50
2022-07-28T14:52:40.024Z,30.70
2022-07-28T14:55:07.128Z,32.00
2022-07-28T14:57:50.292Z,34.20
2022-07-28T15:00:20.021Z,36.10
2022-07-28T15:02:47.591Z,38.00
2022-07-28T15:05:14.480Z,36.60
2022-07-28T15:07:42.262Z,36.00
2022-07-28T15:10:10.266Z,37.00
2022-07-28T15:12:37.151Z,37.40
2022-07-28T15:15:05.131Z,37.20
2022-07-28T15:17:31.821Z,37.50
2022-07-28T15:19:58.855Z,37.30
2022-07-28T15:22:26.568Z,37.40
2022-07-28T15:24:53.634Z,36.60
2022-07-28T15:27:20.843Z,35.70
2022-07-28T15:29:47.631Z,36.90
2022-07-28T15:32:19.409Z,38.50
2022-07-28T15:34:52.306Z,39.60
2022-07-28T15:37:18.941Z,37.90
2022-07-28T15:39:45.580Z,37.30
2022-07-28T15:42:12.306Z,36.10
2022-07-28T15:44:38.944Z,36.00
2022-07-28T15:47:05.768Z,35.10
2022-07-28T15:49:32.530Z,36.10
2022-07-28T15:52:00.916Z,37.70
2022-07-28T15:54:28.138Z,36.40
2022-07-28T15:56:54.857Z,33.60
2022-07-28T15:59:21.542Z,32.10
2022-07-28T16:01:48.435Z,30.80
2022-07-28T16:04:15.762Z,29.90
2022-07-28T16:07:01.175Z,29.10
2022-07-28T16:09:45.854Z,29.80
2022-07-28T16:12:14.377Z,31.80
2022-07-28T16:14:41.899Z,31.20
2022-07-28T16:17:09.773Z,32.70
2022-07-28T16:19:48.346Z,33.50
2022-07-28T16:22:15.938Z,33.50
2022-07-28T16:24:42.653Z,32.80
2022-07-28T16:27:09.939Z,32.00
2022-07-28T16:29:38.009Z,32.90
2022-07-28T16:32:05.316Z,34.90
2022-07-28T16:34:31.974Z,36.40
2022-07-28T16:36:58.619Z,37.60
2022-07-28T16:39:25.296Z,37.90
2022-07-28T16:41:53.050Z,37.60
2022-07-28T16:44:20.305Z,36.40
2022-07-28T16:46:47.157Z,33.40
2022-07-28T16:49:16.281Z,32.10
2022-07-28T16:51:43.084Z,31.30
2022-07-28T16:54:09.843Z,31.10
2022-07-28T16:56:36.653Z,30.90
2022-07-28T16:59:03.962Z,29.50
2022-07-28T17:01:30.821Z,28.30
2022-07-28T17:03:57.564Z,27.90
2022-07-28T17:06:24.743Z,27.50
2022-07-28T17:08:51.457Z,27.40
2022-07-28T17:11:18.223Z,27.30
2022-07-28T17:13:45.511Z,27.50
2022-07-28T17:16:13.143Z,27.70
2022-07-28T17:18:40.186Z,27.90
2022-07-28T17:21:06.898Z,30.10
2022-07-28T17:23:34.664Z,31.30
2022-07-28T17:28:52.954Z,29.90
2022-07-28T17:31:19.688Z,28.60
2022-07-28T17:33:46.477Z,27.80
2022-07-28T17:36:13.713Z,26.90
2022-07-28T17:38:40.488Z,26.30
2022-07-28T17:41:09.076Z,26.20
2022-07-28T17:43:36.498Z,26.00
2022-07-28T17:46:08.665Z,26.00
2022-07-28T17:48:38.308Z,26.10
2022-07-28T17:51:05.302Z,26.10
2022-07-28T17:53:33.498Z,26.30
2022-07-28T17:56:05.984Z,26.70
2022-07-28T17:58:35.251Z,27.20
2022-07-28T18:01:10.695Z,27.70
2022-07-28T18:03:58.164Z,28.00
2022-07-28T18:06:29.389Z,28.00
2022-07-28T18:08:57.244Z,28.70
2022-07-28T18:11:24.436Z,28.20
2022-07-28T18:14:15.694Z,28.00
2022-07-28T18:16:37.750Z,27.60
2022-07-28T18:19:04.454Z,26.60
2022-07-28T18:21:31.064Z,26.00
2022-07-28T18:23:57.731Z,25.40
2022-07-28T18:26:24.422Z,25.10
2022-07-28T18:28:51.124Z,24.60
2022-07-28T18:31:17.916Z,24.30
2022-07-28T18:33:44.695Z,24.00
2022-07-28T18:36:11.408Z,23.80
2022-07-28T18:38:38.102Z,23.50
2022-07-28T18:41:04.743Z,23.20
2022-07-28T18:43:31.530Z,22.90
2022-07-28T18:45:58.310Z,22.80
2022-07-28T18:48:27.774Z,22.50
2022-07-28T18:50:54.462Z,22.30
2022-07-28T18:53:21.130Z,22.10
2022-07-28T18:55:47.796Z,21.90
2022-07-28T18:58:14.398Z,21.70
2022-07-28T19:00:41.044Z,21.60
2022-07-28T19:03:07.746Z,21.40
2022-07-28T19:05:36.414Z,21.20
2022-07-28T19:08:07.357Z,21.00
2022-07-28T19:10:34.011Z,20.90
2022-07-28T19:13:00.709Z,20.70
2022-07-28T19:15:27.457Z,20.60
2022-07-28T19:18:09.879Z,20.40
2022-07-28T19:20:43.821Z,20.30
2022-07-28T19:23:10.377Z,20.20
2022-07-28T19:25:38.779Z,20.00
2022-07-28T19:28:06.052Z,19.90
2022-07-28T19:30:33.088Z,19.80
2022-07-28T19:33:00.228Z,19.70
2022-07-28T19:35:26.984Z,19.60
2022-07-28T19:37:55.321Z,19.50
2022-07-28T19:40:22.243Z,19.50
2022-07-28T19:42:48.924Z,19.40
2022-07-28T19:45:15.655Z,19.40
2022-07-28T19:47:42.611Z,19.30
2022-07-28T19:50:09.305Z,19.30
2022-07-28T19:52:35.979Z,19.20
2022-07-28T19:55:05.278Z,19.20
2022-07-28T19:57:32.963Z,19.10
2022-07-28T20:00:01.834Z,19.00
2022-07-28T20:02:29.445Z,19.00
2022-07-28T20:04:56.126Z,18.90
2022-07-28T20:07:23.839Z,18.90
2022-07-28T20:09:50.499Z,18.80
2022-07-28T20:12:18.185Z,18.80
2022-07-28T20:14:44.876Z,18.70
2022-07-28T20:17:24.395Z,18.60
2022-07-28T20:19:58.492Z,18.60
2022-07-28T20:22:25.252Z,18.50
2022-07-28T20:24:51.940Z,18.50
2022-07-28T20:27:18.724Z,18.50
2022-07-28T20:29:45.572Z,18.50
2022-07-28T20:32:12.262Z,18.40
2022-07-28T20:34:38.910Z,18.40
2022-07-28T20:37:06.585Z,18.30
2022-07-28T20:39:53.182Z,18.30
2022-07-28T20:42:19.978Z,18.20
2022-07-28T20:44:46.675Z,18.10
2022-07-28T20:47:13.351Z,18.00
2022-07-28T20:49:39.978Z,17.90
2022-07-28T20:52:06.770Z,17.90
2022-07-28T20:54:33.417Z,17.90
2022-07-28T20:57:00.242Z,17.80
2022-07-28T20:59:27.897Z,17.80
2022-07-28T21:01:55.092Z,17.80
2022-07-28T21:04:24.461Z,17.70
2022-07-28T21:06:52.784Z,17.70
2022-07-28T21:09:22.082Z,17.70
2022-07-28T21:11:48.837Z,17.60
2022-07-28T21:14:15.827Z,17.60
2022-07-28T21:16:43.195Z,17.50
2022-07-28T21:19:09.910Z,17.50
2022-07-28T21:21:36.561Z,17.50
2022-07-28T21:24:03.513Z,17.40
2022-07-28T21:26:30.269Z,17.40
2022-07-28T21:29:12.692Z,17.40
2022-07-28T21:32:03.815Z,17.30
2022-07-28T21:34:28.330Z,17.20
2022-07-28T21:36:54.955Z,17.20
2022-07-28T21:39:21.637Z,17.20
2022-07-28T21:41:48.258Z,17.10
2022-07-28T21:44:15.245Z,17.10
2022-07-28T21:46:45.544Z,17.10
2022-07-28T21:49:12.369Z,17.10
2022-07-28T21:51:39.157Z,17.10
2022-07-28T21:54:06.159Z,17.10
2022-07-28T21:56:34.451Z,17.10
2022-07-28T21:59:02.519Z,17.10
2022-07-28T22:01:29.673Z,17.00
2022-07-28T22:03:56.905Z,17.00
2022-07-28T22:06:23.983Z,17.00
2022-07-28T22:08:53.469Z,16.90
2022-07-28T22:11:21.791Z,16.80
2022-07-28T22:13:48.588Z,16.80
2022-07-28T22:16:15.417Z,16.70
2022-07-28T22:18:42.123Z,16.60
2022-07-28T22:21:08.765Z,16.60
2022-07-28T22:23:35.557Z,16.60
2022-07-28T22:26:02.923Z,16.60
2022-07-28T22:28:30.623Z,16.60
2022-07-28T22:30:59.052Z,16.60
2022-07-28T22:33:37.490Z,16.60
2022-07-28T22:36:05.250Z,16.50
2022-07-28T22:38:32.027Z,16.60
2022-07-28T22:40:58.683Z,16.60
2022-07-28T22:43:25.364Z,16.60
2022-07-28T22:45:52.055Z,16.60
2022-07-28T22:48:18.929Z,16.60
2022-07-28T22:50:45.589Z,16.60
2022-07-28T22:53:12.195Z,16.50
2022-07-28T22:55:40.307Z,16.50
2022-07-28T22:58:06.913Z,16.50
2022-07-28T23:00:36.170Z,16.50
2022-07-28T23:03:04.350Z,16.50
2022-07-28T23:05:31.191Z,16.50
2022-07-28T23:07:58.877Z,16.50
2022-07-28T23:10:26.417Z,16.60
2022-07-28T23:12:57.231Z,16.50
2022-07-28T23:15:39.694Z,16.50
2022-07-28T23:18:07.815Z,16.50
2022-07-28T23:20:34.637Z,16.50
2022-07-28T23:23:01.632Z,16.50
2022-07-28T23:25:28.708Z,16.60
2022-07-28T23:27:55.359Z,16.60
2022-07-28T23:30:22.052Z,16.60
2022-07-28T23:32:52.422Z,16.60
2022-07-28T23:35:19.338Z,16.60
2022-07-28T23:37:45.987Z,16.50
2022-07-28T23:40:13.250Z,16.50
2022-07-28T23:42:39.933Z,16.50
2022-07-28T23:45:07.322Z,16.50
2022-07-28T23:47:34.406Z,16.50
2022-07-28T23:50:02.094Z,16.50
2022-07-28T23:52:29.051Z,16.50
2022-07-28T23:54:55.869Z,16.60
2022-07-28T23:57:22.613Z,16.50
2022-07-28T23:59:49.274Z,16.50
